Time;durP1;ratioP1;P1;durP2;ratioP2;P2;SDS_P1;SDS_P2;PMS_P1;PMS_P2;Temp;Humidity;BMP_temperature;BMP_pressure;BME280_temperature;BME280_humidity;BME280_pressure;Samples;Min_cycle;Max_cycle;Signal;HPM_P1;HPM_P2
2022/03/07 00:01:57;;;;;;;12.63;11.27;;;3.60;50.90;;;;;;5055249;28;20175;-52
2022/03/07 00:04:23;;;;;;;12.07;10.30;;;3.60;51.20;;;;;;5055204;28;20267;-54
2022/03/07 00:06:49;;;;;;;11.40;10.20;;;3.50;51.40;;;;;;5054887;28;20402;-55
2022/03/07 00:09:15;;;;;;;12.77;10.97;;;3.50;51.70;;;;;;5054658;28;20194;-52
2022/03/07 00:11:42;;;;;;;12.20;10.87;;;3.50;51.50;;;;;;5055370;28;20220;-51
2022/03/07 00:14:08;;;;;;;11.93;10.73;;;3.50;51.60;;;;;;5055235;28;20182;-52
2022/03/07 00:16:34;;;;;;;12.43;10.73;;;3.50;51.90;;;;;;5054398;28;20207;-54
2022/03/07 00:18:59;;;;;;;11.73;10.40;;;3.50;52.20;;;;;;5054856;28;20207;-52
2022/03/07 00:21:25;;;;;;;12.97;10.67;;;3.50;52.60;;;;;;5054690;28;20197;-52
2022/03/07 00:23:51;;;;;;;12.80;11.13;;;3.50;52.00;;;;;;5054881;28;20182;-52
2022/03/07 00:26:20;;;;;;;11.67;10.43;;;3.60;52.50;;;;;;5054140;28;20191;-55
2022/03/07 00:28:46;;;;;;;13.80;11.40;;;3.60;52.80;;;;;;5054275;28;20176;-52
2022/03/07 00:31:12;;;;;;;12.30;11.00;;;3.60;52.80;;;;;;5054559;28;20179;-52
2022/03/07 00:33:38;;;;;;;12.67;11.07;;;3.60;52.80;;;;;;5053604;28;20751;-53
2022/03/07 00:36:05;;;;;;;12.40;10.60;;;3.50;52.80;;;;;;5053809;28;20437;-51
2022/03/07 00:38:31;;;;;;;12.87;10.70;;;3.50;52.90;;;;;;5054297;28;20206;-52
2022/03/07 00:40:57;;;;;;;12.13;10.93;;;3.50;53.30;;;;;;5054709;28;20167;-50
2022/03/07 00:43:22;;;;;;;12.87;11.23;;;3.50;52.70;;;;;;5054112;28;20224;-53
2022/03/07 00:45:49;;;;;;;12.47;11.03;;;3.50;52.80;;;;;;5052622;28;20194;-53
2022/03/07 00:48:15;;;;;;;12.23;10.70;;;3.40;52.60;;;;;;5054115;28;20258;-53
2022/03/07 00:50:52;;;;;;;13.37;11.27;;;3.40;52.90;;;;;;5054293;28;20179;-54
2022/03/07 00:53:20;;;;;;;12.37;11.03;;;3.40;52.90;;;;;;5054235;28;20171;-50
2022/03/07 00:55:46;;;;;;;14.17;11.17;;;3.40;53.00;;;;;;5053523;28;20440;-52
2022/03/07 00:58:12;;;;;;;14.80;10.97;;;3.40;53.10;;;;;;5053948;28;20457;-54
2022/03/07 01:00:39;;;;;;;11.93;10.40;;;3.50;53.00;;;;;;5054129;28;20175;-52
2022/03/07 01:03:06;;;;;;;12.17;10.83;;;3.40;53.40;;;;;;5054290;28;20540;-56
2022/03/07 01:05:32;;;;;;;13.17;11.27;;;3.40;53.00;;;;;;5053402;28;20438;-56
2022/03/07 01:07:58;;;;;;;12.30;10.50;;;3.40;53.20;;;;;;5053711;28;20412;-52
2022/03/07 01:10:24;;;;;;;12.40;11.07;;;3.40;53.10;;;;;;5053791;28;20222;-53
2022/03/07 01:12:50;;;;;;;12.63;11.30;;;3.40;53.20;;;;;;5053922;28;20270;-54
2022/03/07 01:15:16;;;;;;;13.63;11.07;;;3.40;53.30;;;;;;5053521;28;21013;-57
2022/03/07 01:17:42;;;;;;;12.27;10.97;;;3.40;52.80;;;;;;5053252;28;20568;-55
2022/03/07 01:20:09;;;;;;;13.27;11.67;;;3.50;52.70;;;;;;5053704;28;20825;-56
2022/03/07 01:22:35;;;;;;;14.77;12.37;;;3.40;53.40;;;;;;5053392;28;20186;-51
2022/03/07 01:25:01;;;;;;;14.17;11.77;;;3.40;52.70;;;;;;5053338;28;20422;-52
2022/03/07 01:27:27;;;;;;;14.27;11.70;;;3.40;52.80;;;;;;5053155;28;20525;-56
2022/03/07 01:29:53;;;;;;;13.13;11.43;;;3.40;52.80;;;;;;5053437;28;20421;-53
2022/03/07 01:32:18;;;;;;;12.67;11.37;;;3.30;52.90;;;;;;5053568;28;20218;-52
2022/03/07 01:34:44;;;;;;;13.30;11.53;;;3.20;52.90;;;;;;5053310;28;20202;-55
2022/03/07 01:37:09;;;;;;;14.30;12.03;;;3.10;52.90;;;;;;5052809;28;20213;-53
2022/03/07 01:39:35;;;;;;;13.23;11.53;;;3.10;54.10;;;;;;5053155;28;20258;-53
2022/03/07 01:42:01;;;;;;;13.97;11.53;;;3.10;53.60;;;;;;5053312;28;20293;-53
2022/03/07 01:44:29;;;;;;;13.50;11.67;;;3.10;53.60;;;;;;5053140;28;20249;-54
2022/03/07 01:46:56;;;;;;;12.50;11.20;;;3.10;53.60;;;;;;5052774;28;20412;-58
2022/03/07 01:49:23;;;;;;;12.80;11.33;;;3.10;53.60;;;;;;5053116;28;20756;-56
2022/03/07 01:51:50;;;;;;;16.63;12.67;;;3.10;53.70;;;;;;5053168;28;20436;-55
2022/03/07 01:54:18;;;;;;;13.20;11.77;;;3.10;53.70;;;;;;5052971;28;20496;-53
2022/03/07 01:56:46;;;;;;;12.57;10.90;;;3.00;54.10;;;;;;5051397;28;20509;-51
2022/03/07 01:59:14;;;;;;;13.93;11.93;;;3.00;54.20;;;;;;5053197;28;20897;-55
2022/03/07 02:01:40;;;;;;;14.67;12.17;;;3.00;54.20;;;;;;5055718;28;20907;-52
2022/03/07 02:04:07;;;;;;;13.23;11.87;;;3.00;54.20;;;;;;5055386;28;20398;-48
2022/03/07 02:06:33;;;;;;;13.53;12.13;;;3.00;54.70;;;;;;5054599;28;20422;-52
2022/03/07 02:08:59;;;;;;;14.47;12.53;;;3.00;54.50;;;;;;5052689;28;20400;-55
2022/03/07 02:11:25;;;;;;;14.20;12.00;;;3.00;54.70;;;;;;5053054;28;21089;-55
2022/03/07 02:13:51;;;;;;;15.33;12.97;;;3.00;54.60;;;;;;5053007;28;20552;-52
2022/03/07 02:16:17;;;;;;;15.10;12.80;;;3.00;55.00;;;;;;5052596;28;20449;-53
2022/03/07 02:18:43;;;;;;;13.43;12.03;;;3.00;55.20;;;;;;5052585;28;20463;-52
2022/03/07 02:21:11;;;;;;;14.53;13.00;;;3.00;55.10;;;;;;5052606;28;20788;-54
2022/03/07 02:23:37;;;;;;;15.17;12.43;;;3.10;55.20;;;;;;5052463;28;20167;-52
2022/03/07 02:26:29;;;;;;;13.83;12.37;;;3.10;55.20;;;;;;5052097;28;20425;-54
2022/03/07 02:28:55;;;;;;;13.43;11.40;;;3.10;55.60;;;;;;5050431;28;20429;-53
2022/03/07 02:31:21;;;;;;;13.87;12.37;;;3.10;55.30;;;;;;5052632;28;20933;-52
2022/03/07 02:33:47;;;;;;;14.77;12.83;;;3.10;55.70;;;;;;5052570;28;20171;-55
2022/03/07 02:36:13;;;;;;;15.13;11.77;;;3.10;55.60;;;;;;5051963;28;20517;-56
2022/03/07 02:38:38;;;;;;;14.47;12.77;;;3.10;55.60;;;;;;5052151;28;20569;-54
2022/03/07 02:41:04;;;;;;;14.40;12.30;;;3.10;55.50;;;;;;5052198;28;20175;-53
2022/03/07 02:43:30;;;;;;;15.07;12.70;;;3.10;55.60;;;;;;5052188;28;20182;-52
2022/03/07 02:45:58;;;;;;;14.50;12.93;;;3.10;55.60;;;;;;5051947;28;20186;-54
2022/03/07 02:48:26;;;;;;;15.37;13.27;;;3.10;55.60;;;;;;5052122;28;20167;-54
2022/03/07 02:50:52;;;;;;;15.43;13.20;;;2.90;56.20;;;;;;5052092;28;20462;-51
2022/03/07 02:53:17;;;;;;;14.57;13.03;;;2.80;56.60;;;;;;5052078;28;20496;-54
2022/03/07 02:55:43;;;;;;;15.50;13.33;;;2.80;56.90;;;;;;5051644;28;20199;-55
2022/03/07 02:58:09;;;;;;;16.37;12.93;;;2.80;57.20;;;;;;5052032;28;20337;-54
2022/03/07 03:00:35;;;;;;;17.30;13.53;;;2.80;57.40;;;;;;5052050;28;20556;-52
2022/03/07 03:03:01;;;;;;;15.63;13.90;;;2.80;57.60;;;;;;5051899;28;20408;-52
2022/03/07 03:05:27;;;;;;;15.63;13.57;;;2.80;58.10;;;;;;5050634;28;20426;-51
2022/03/07 03:07:52;;;;;;;17.97;14.47;;;2.70;58.50;;;;;;5051558;28;20249;-52
2022/03/07 03:10:19;;;;;;;17.50;14.57;;;2.60;59.00;;;;;;5054197;28;20301;-52
2022/03/07 03:12:46;;;;;;;16.93;14.00;;;2.50;59.20;;;;;;5055849;28;20178;-54
2022/03/07 03:15:13;;;;;;;16.03;13.53;;;2.50;59.30;;;;;;5055540;28;20826;-53
2022/03/07 03:17:43;;;;;;;17.50;14.27;;;2.50;59.60;;;;;;5055557;28;20452;-53
2022/03/07 03:20:11;;;;;;;16.77;14.23;;;2.50;59.70;;;;;;5055840;28;20441;-53
2022/03/07 03:22:38;;;;;;;15.87;14.17;;;2.50;59.70;;;;;;5055833;28;20405;-54
2022/03/07 03:25:04;;;;;;;18.97;14.90;;;2.50;59.90;;;;;;5055721;28;20445;-54
2022/03/07 03:27:30;;;;;;;17.17;14.50;;;2.40;59.80;;;;;;5055304;28;20424;-51
2022/03/07 03:29:56;;;;;;;17.73;14.70;;;2.40;59.80;;;;;;5055379;28;20484;-53
2022/03/07 03:32:21;;;;;;;16.93;15.10;;;2.40;59.70;;;;;;5055399;28;20856;-55
2022/03/07 03:34:47;;;;;;;15.97;14.07;;;2.30;59.80;;;;;;5055545;28;20203;-53
2022/03/07 03:37:12;;;;;;;16.07;14.37;;;2.30;59.60;;;;;;5053843;28;20221;-55
2022/03/07 03:39:38;;;;;;;17.73;14.43;;;2.30;59.70;;;;;;5055694;28;20172;-53
2022/03/07 03:42:05;;;;;;;16.57;13.77;;;2.30;59.80;;;;;;5055356;28;20171;-53
2022/03/07 03:44:30;;;;;;;18.07;14.60;;;2.40;59.70;;;;;;5055310;28;20167;-54
2022/03/07 03:46:56;;;;;;;16.23;14.37;;;2.50;59.50;;;;;;5054847;28;20770;-51
2022/03/07 03:49:21;;;;;;;16.50;14.20;;;2.60;59.40;;;;;;5053880;28;20194;-54
2022/03/07 03:51:47;;;;;;;17.23;14.63;;;2.60;59.30;;;;;;5055179;28;20178;-53
2022/03/07 03:54:12;;;;;;;17.93;15.60;;;2.60;59.40;;;;;;5054977;28;20206;-55
2022/03/07 03:56:38;;;;;;;16.07;14.30;;;2.60;59.30;;;;;;5054440;28;20183;-53
2022/03/07 03:59:03;;;;;;;18.50;14.60;;;2.60;59.20;;;;;;5054842;28;20636;-53
2022/03/07 04:01:29;;;;;;;19.10;15.43;;;2.70;59.30;;;;;;5054771;28;20225;-53
2022/03/07 04:03:54;;;;;;;17.13;14.47;;;2.60;59.20;;;;;;5054948;28;20560;-50
2022/03/07 04:06:20;;;;;;;17.00;15.20;;;2.50;59.20;;;;;;5054513;28;20733;-56
2022/03/07 04:08:49;;;;;;;18.87;15.03;;;2.40;59.40;;;;;;5054705;28;20171;-52
2022/03/07 04:11:15;;;;;;;17.80;15.10;;;2.40;59.30;;;;;;5054804;28;20674;-54
2022/03/07 04:13:40;;;;;;;19.63;16.20;;;2.50;59.30;;;;;;5054712;28;20416;-54
2022/03/07 04:16:06;;;;;;;16.03;14.10;;;2.40;59.50;;;;;;5054076;28;20261;-55
2022/03/07 04:18:32;;;;;;;17.13;14.90;;;2.50;59.50;;;;;;5054421;28;20277;-52
2022/03/07 04:20:57;;;;;;;16.17;14.03;;;2.40;59.20;;;;;;5053081;28;20276;-55
2022/03/07 04:23:24;;;;;;;19.07;14.53;;;2.40;59.20;;;;;;5054479;28;20537;-54
2022/03/07 04:25:49;;;;;;;17.03;13.93;;;2.30;59.10;;;;;;5054048;28;20207;-53
2022/03/07 04:28:15;;;;;;;18.13;15.83;;;2.30;59.40;;;;;;5054433;28;20405;-50
2022/03/07 04:30:42;;;;;;;16.87;14.70;;;2.30;59.70;;;;;;5054431;28;20578;-51
2022/03/07 04:33:08;;;;;;;17.73;15.60;;;2.30;59.90;;;;;;5054524;28;20783;-51
2022/03/07 04:35:35;;;;;;;19.07;16.13;;;2.30;59.80;;;;;;5054704;28;20525;-54
2022/03/07 04:38:01;;;;;;;17.67;15.70;;;2.30;59.70;;;;;;5057368;28;20496;-54
2022/03/07 04:40:27;;;;;;;17.17;15.33;;;2.30;59.50;;;;;;5058022;28;20460;-52
2022/03/07 04:42:55;;;;;;;17.63;14.47;;;2.20;59.50;;;;;;5064216;28;20488;-54
2022/03/07 04:45:21;;;;;;;17.90;15.20;;;2.10;59.40;;;;;;5053754;28;20468;-55
2022/03/07 04:47:47;;;;;;;17.43;15.27;;;2.00;59.60;;;;;;5053640;28;20445;-56
2022/03/07 04:50:13;;;;;;;17.93;16.03;;;2.00;59.90;;;;;;5053990;28;20213;-51
2022/03/07 04:52:39;;;;;;;17.90;15.33;;;2.00;60.30;;;;;;5054035;28;20186;-52
2022/03/07 04:55:06;;;;;;;15.63;13.93;;;2.10;60.40;;;;;;5053568;28;21152;-52
2022/03/07 04:57:31;;;;;;;18.40;15.50;;;2.10;60.20;;;;;;5053298;28;20457;-54
2022/03/07 04:59:57;;;;;;;17.20;15.03;;;2.20;60.10;;;;;;5053685;28;20417;-52
2022/03/07 05:02:22;;;;;;;17.77;15.63;;;2.30;59.60;;;;;;5053788;28;20293;-51
2022/03/07 05:04:48;;;;;;;16.90;14.93;;;2.30;59.70;;;;;;5053732;28;20183;-54
2022/03/07 05:07:14;;;;;;;19.63;16.03;;;2.20;59.60;;;;;;5053235;28;20167;-52
2022/03/07 05:09:39;;;;;;;16.77;14.70;;;2.20;59.30;;;;;;5053810;28;20284;-54
2022/03/07 05:12:05;;;;;;;17.50;15.07;;;2.20;58.90;;;;;;5053532;28;20206;-52
2022/03/07 05:14:31;;;;;;;18.90;15.27;;;2.20;59.00;;;;;;5053425;28;20179;-55
2022/03/07 05:16:56;;;;;;;17.83;14.77;;;2.20;58.90;;;;;;5052930;28;20206;-52
2022/03/07 05:19:23;;;;;;;17.07;14.53;;;2.20;58.60;;;;;;5053345;28;20171;-52
2022/03/07 05:21:49;;;;;;;17.93;15.73;;;2.10;58.50;;;;;;5053422;28;20167;-56
2022/03/07 05:24:15;;;;;;;18.43;15.90;;;2.10;58.70;;;;;;5053430;28;20483;-52
2022/03/07 05:26:40;;;;;;;18.57;15.37;;;2.10;58.60;;;;;;5052650;28;20199;-51
2022/03/07 05:29:07;;;;;;;16.97;14.90;;;2.20;58.30;;;;;;5053004;28;20167;-52
2022/03/07 05:31:32;;;;;;;16.87;15.07;;;2.20;58.20;;;;;;5052639;28;20540;-53
2022/03/07 05:33:58;;;;;;;18.33;14.83;;;2.30;58.10;;;;;;5052727;28;20421;-54
2022/03/07 05:36:23;;;;;;;18.13;16.20;;;2.30;57.90;;;;;;5051529;28;20199;-53
2022/03/07 05:38:49;;;;;;;18.93;14.70;;;2.20;57.60;;;;;;5052847;28;20214;-51
2022/03/07 05:41:15;;;;;;;18.30;15.30;;;2.20;57.70;;;;;;5052995;28;20309;-52
2022/03/07 05:43:40;;;;;;;19.70;16.27;;;2.10;57.90;;;;;;5052848;28;20206;-57
2022/03/07 05:46:07;;;;;;;16.77;15.07;;;2.10;58.00;;;;;;5052635;28;20206;-53
2022/03/07 05:48:33;;;;;;;18.30;15.97;;;2.00;57.90;;;;;;5051485;28;20182;-51
2022/03/07 05:50:59;;;;;;;20.03;16.83;;;1.90;57.90;;;;;;5052821;28;20449;-55
2022/03/07 05:53:24;;;;;;;18.10;15.93;;;1.90;58.10;;;;;;5052939;28;20479;-53
2022/03/07 05:55:51;;;;;;;17.57;15.70;;;1.80;58.20;;;;;;5052370;28;20403;-55
2022/03/07 05:58:17;;;;;;;18.43;16.10;;;1.80;58.20;;;;;;5052536;28;20202;-52
2022/03/07 06:00:44;;;;;;;17.57;15.67;;;1.80;58.60;;;;;;5052508;28;20402;-52
2022/03/07 06:03:09;;;;;;;18.90;16.23;;;1.70;58.60;;;;;;5052474;28;20412;-55
2022/03/07 06:05:35;;;;;;;19.10;16.50;;;1.70;58.30;;;;;;5052259;28;20429;-53
2022/03/07 06:08:02;;;;;;;19.63;16.83;;;1.80;58.00;;;;;;5052461;28;20187;-55
2022/03/07 06:10:28;;;;;;;20.67;15.93;;;1.80;57.80;;;;;;5052354;28;20183;-56
2022/03/07 06:12:54;;;;;;;18.40;15.93;;;1.90;57.10;;;;;;5051156;28;20476;-55
2022/03/07 06:15:20;;;;;;;18.53;15.83;;;1.90;56.50;;;;;;5051627;28;20218;-56
2022/03/07 06:17:54;;;;;;;17.93;15.60;;;1.90;56.40;;;;;;5051534;28;20202;-52
2022/03/07 06:20:20;;;;;;;17.07;14.47;;;1.80;56.00;;;;;;5051991;28;20412;-54
2022/03/07 06:22:46;;;;;;;17.33;15.43;;;1.70;55.50;;;;;;5051968;28;20405;-54
2022/03/07 06:25:12;;;;;;;14.77;13.23;;;1.50;55.30;;;;;;5051854;28;20918;-53
2022/03/07 06:27:38;;;;;;;18.20;14.57;;;1.50;55.80;;;;;;5051539;28;20179;-53
2022/03/07 06:30:04;;;;;;;15.97;14.20;;;1.60;55.50;;;;;;5052125;28;20183;-55
2022/03/07 06:32:30;;;;;;;15.60;13.93;;;1.60;54.20;;;;;;5051810;28;20547;-52
2022/03/07 06:34:55;;;;;;;18.00;15.93;;;1.70;54.50;;;;;;5051813;28;20433;-55
2022/03/07 06:37:21;;;;;;;16.77;14.50;;;1.70;54.50;;;;;;5051550;28;20285;-53
2022/03/07 06:39:47;;;;;;;16.57;14.10;;;1.80;54.20;;;;;;5051887;28;20250;-53
2022/03/07 06:42:12;;;;;;;16.60;13.97;;;1.80;54.00;;;;;;5052080;28;20535;-52
2022/03/07 06:44:39;;;;;;;15.93;14.23;;;1.90;53.50;;;;;;5051669;28;20195;-55
2022/03/07 06:47:08;;;;;;;16.57;14.00;;;2.00;53.30;;;;;;5051469;28;20198;-52
2022/03/07 06:49:34;;;;;;;15.43;13.57;;;2.00;53.40;;;;;;5051768;28;20836;-53
2022/03/07 06:51:59;;;;;;;16.73;14.10;;;2.10;53.20;;;;;;5051640;28;20451;-54
2022/03/07 06:54:25;;;;;;;16.07;13.97;;;2.20;52.90;;;;;;5051655;28;20410;-54
2022/03/07 06:56:51;;;;;;;16.17;14.47;;;2.20;52.90;;;;;;5051456;28;20175;-54
2022/03/07 06:59:16;;;;;;;16.17;14.17;;;2.20;52.90;;;;;;5051767;28;20210;-54
2022/03/07 07:01:42;;;;;;;15.80;14.10;;;2.30;53.40;;;;;;5051629;28;20171;-55
2022/03/07 07:04:07;;;;;;;17.73;14.00;;;2.20;52.90;;;;;;5051567;28;20171;-56
2022/03/07 07:06:33;;;;;;;16.33;14.53;;;2.30;52.90;;;;;;5051127;28;20316;-56
2022/03/07 07:08:59;;;;;;;16.90;15.03;;;2.30;52.90;;;;;;5050996;28;20644;-55
2022/03/07 07:11:24;;;;;;;16.87;14.37;;;2.40;52.90;;;;;;5051392;28;20659;-55
2022/03/07 07:13:50;;;;;;;15.07;13.13;;;2.50;52.40;;;;;;5051678;28;20186;-57
2022/03/07 07:16:15;;;;;;;16.20;14.00;;;2.60;51.90;;;;;;5051543;28;20211;-56
2022/03/07 07:18:41;;;;;;;16.50;14.03;;;2.70;51.90;;;;;;5051614;28;20238;-56
2022/03/07 07:21:07;;;;;;;18.40;14.10;;;2.80;51.80;;;;;;5051611;28;20179;-53
2022/03/07 07:23:32;;;;;;;14.33;12.83;;;2.70;51.50;;;;;;5051324;28;20175;-56
2022/03/07 07:25:58;;;;;;;18.43;13.00;;;2.60;51.50;;;;;;5051037;28;20896;-54
2022/03/07 07:28:24;;;;;;;14.57;12.67;;;2.80;51.30;;;;;;5051285;28;20641;-55
2022/03/07 07:30:50;;;;;;;14.07;12.20;;;2.90;50.80;;;;;;5051275;28;20233;-57
2022/03/07 07:33:16;;;;;;;14.30;12.03;;;2.90;50.30;;;;;;5051346;28;20167;-53
2022/03/07 07:35:42;;;;;;;13.70;12.30;;;2.60;49.90;;;;;;5050810;28;20433;-51
2022/03/07 07:38:08;;;;;;;12.80;11.10;;;2.50;50.10;;;;;;5050877;28;20783;-57
2022/03/07 07:40:33;;;;;;;13.07;11.67;;;2.50;50.30;;;;;;5051171;28;20163;-53
2022/03/07 07:42:59;;;;;;;15.10;12.13;;;2.60;50.60;;;;;;5051299;28;20788;-53
2022/03/07 07:45:25;;;;;;;13.70;11.37;;;2.60;50.10;;;;;;5051097;28;20203;-48
2022/03/07 07:47:51;;;;;;;14.13;11.57;;;2.60;49.80;;;;;;5051061;28;20190;-52
2022/03/07 07:50:17;;;;;;;12.77;11.47;;;2.60;50.00;;;;;;5051643;28;20179;-57
2022/03/07 07:52:42;;;;;;;12.13;10.63;;;2.70;49.50;;;;;;5051162;28;20421;-58
2022/03/07 07:55:08;;;;;;;12.23;10.90;;;2.60;49.00;;;;;;5051639;28;20199;-59
2022/03/07 07:57:35;;;;;;;12.13;10.87;;;2.50;48.90;;;;;;5054554;28;20256;-56
2022/03/07 08:00:00;;;;;;;12.53;10.87;;;2.50;48.90;;;;;;5054649;28;20175;-55
2022/03/07 08:02:26;;;;;;;12.43;10.67;;;2.60;48.50;;;;;;5054729;28;20845;-54
2022/03/07 08:04:52;;;;;;;13.20;11.77;;;2.70;48.00;;;;;;5054458;28;20191;-57
2022/03/07 08:07:18;;;;;;;13.43;11.00;;;2.70;47.50;;;;;;5054106;28;20225;-55
2022/03/07 08:09:44;;;;;;;13.10;11.27;;;2.60;48.00;;;;;;5053262;28;20414;-56
2022/03/07 08:12:10;;;;;;;12.40;10.50;;;2.70;47.60;;;;;;5054183;28;20421;-53
2022/03/07 08:14:39;;;;;;;11.17;9.97;;;2.70;47.80;;;;;;5054109;28;20201;-57
2022/03/07 08:17:05;;;;;;;10.93;9.50;;;2.70;47.50;;;;;;5054016;28;20203;-54
2022/03/07 08:19:31;;;;;;;12.13;10.57;;;2.70;47.90;;;;;;5054330;28;20469;-55
2022/03/07 08:21:57;;;;;;;12.30;10.13;;;2.80;48.00;;;;;;5054296;28;20179;-55
2022/03/07 08:24:23;;;;;;;12.80;10.13;;;2.90;47.50;;;;;;5054154;28;20171;-55
2022/03/07 08:26:49;;;;;;;11.37;10.03;;;2.90;47.40;;;;;;5053968;28;20656;-57
2022/03/07 08:29:15;;;;;;;10.20;9.13;;;3.00;47.20;;;;;;5054113;28;20448;-55
2022/03/07 08:31:41;;;;;;;12.63;9.57;;;3.00;46.70;;;;;;5054183;28;20210;-58
2022/03/07 08:34:06;;;;;;;10.40;9.30;;;3.10;46.80;;;;;;5054031;28;20179;-56
2022/03/07 08:36:32;;;;;;;11.00;9.60;;;3.10;47.10;;;;;;5053833;28;20211;-55
2022/03/07 08:38:58;;;;;;;10.23;9.13;;;3.20;47.00;;;;;;5053835;28;20230;-54
2022/03/07 08:41:23;;;;;;;11.93;9.73;;;3.20;47.10;;;;;;5053913;28;20249;-56
2022/03/07 08:43:50;;;;;;;11.10;9.67;;;3.20;46.60;;;;;;5053890;28;20178;-54
2022/03/07 08:46:16;;;;;;;10.33;9.30;;;3.30;46.90;;;;;;5053417;28;20194;-56
2022/03/07 08:48:41;;;;;;;10.17;9.00;;;3.30;46.40;;;;;;5053766;28;20179;-53
2022/03/07 08:51:07;;;;;;;10.47;8.83;;;3.30;46.20;;;;;;5053779;28;20262;-53
2022/03/07 08:53:32;;;;;;;9.87;8.83;;;3.50;46.20;;;;;;5053892;28;20175;-55
2022/03/07 08:55:58;;;;;;;9.17;8.17;;;3.60;45.50;;;;;;5053250;28;20195;-55
2022/03/07 08:58:24;;;;;;;9.93;8.93;;;3.80;46.40;;;;;;5053508;28;20202;-54
2022/03/07 09:00:50;;;;;;;11.43;9.23;;;4.00;45.80;;;;;;5053771;28;20175;-53
2022/03/07 09:03:15;;;;;;;9.80;8.50;;;4.10;45.90;;;;;;5053615;28;20175;-56
2022/03/07 09:05:41;;;;;;;10.03;8.73;;;4.10;44.90;;;;;;5053020;28;20660;-55
2022/03/07 09:08:06;;;;;;;8.83;7.93;;;4.20;43.90;;;;;;5052236;28;20179;-54
2022/03/07 09:10:32;;;;;;;10.07;8.57;;;4.20;44.60;;;;;;5053383;28;20214;-54
2022/03/07 09:12:58;;;;;;;9.27;8.13;;;4.20;44.40;;;;;;5053358;28;20175;-51
2022/03/07 09:15:23;;;;;;;10.20;8.40;;;4.30;44.50;;;;;;5063091;28;20625;-54
2022/03/07 09:17:49;;;;;;;10.50;8.70;;;4.50;44.40;;;;;;5072668;28;20202;-57
2022/03/07 09:20:17;;;;;;;10.93;7.93;;;4.50;44.20;;;;;;5073150;28;20288;-57
2022/03/07 09:22:43;;;;;;;10.47;8.67;;;4.60;43.60;;;;;;5073143;28;20167;-56
2022/03/07 09:25:09;;;;;;;9.70;7.83;;;4.60;44.00;;;;;;5073123;28;20248;-57
2022/03/07 09:27:35;;;;;;;10.30;8.20;;;4.80;44.10;;;;;;5072801;28;20174;-57
2022/03/07 09:30:02;;;;;;;10.20;8.60;;;5.10;43.90;;;;;;5072904;28;20174;-55
2022/03/07 09:32:27;;;;;;;11.63;7.67;;;5.30;43.40;;;;;;5072894;28;20197;-53
2022/03/07 09:34:53;;;;;;;9.97;8.57;;;5.60;43.20;;;;;;5072794;28;20198;-57
2022/03/07 09:37:19;;;;;;;8.80;7.77;;;5.90;42.50;;;;;;5072377;28;20526;-57
2022/03/07 09:39:44;;;;;;;10.00;7.80;;;6.30;42.10;;;;;;5072824;28;20793;-54
2022/03/07 09:42:10;;;;;;;8.43;7.50;;;6.60;41.70;;;;;;5072873;28;20190;-57
2022/03/07 09:44:35;;;;;;;8.13;7.33;;;7.00;41.10;;;;;;5072574;28;20669;-55
2022/03/07 09:47:03;;;;;;;9.23;8.00;;;7.80;40.40;;;;;;5072316;28;20669;-57
2022/03/07 09:49:28;;;;;;;8.67;7.77;;;8.60;38.90;;;;;;5071391;28;20725;-58
2022/03/07 09:51:54;;;;;;;8.60;7.70;;;9.70;37.60;;;;;;5072566;28;20224;-58
2022/03/07 09:54:20;;;;;;;8.17;7.37;;;10.90;35.90;;;;;;5072421;28;20193;-56
2022/03/07 09:56:46;;;;;;;8.90;7.27;;;12.20;34.40;;;;;;5072184;28;20278;-60
2022/03/07 09:59:11;;;;;;;8.43;7.47;;;13.50;31.90;;;;;;5072447;28;20293;-57
2022/03/07 10:01:37;;;;;;;8.70;7.57;;;14.40;31.40;;;;;;5071103;28;20185;-58
2022/03/07 10:04:08;;;;;;;8.60;7.80;;;15.00;31.10;;;;;;5072616;28;20178;-56
2022/03/07 10:06:33;;;;;;;8.50;7.70;;;16.00;29.10;;;;;;5071919;28;20277;-51
2022/03/07 10:09:00;;;;;;;8.20;7.40;;;16.80;28.30;;;;;;5072361;28;20257;-58
2022/03/07 10:11:28;;;;;;;7.67;6.90;;;17.50;28.20;;;;;;5072405;28;20201;-56
2022/03/07 10:14:03;;;;;;;8.30;7.50;;;19.00;27.50;;;;;;5072556;28;20294;-55
2022/03/07 10:16:43;;;;;;;7.55;6.85;;;20.90;26.70;;;;;;5071737;28;20213;-57
2022/03/07 10:19:13;;;;;;;7.53;6.82;;;23.70;25.50;;;;;;5071830;28;20202;-54
2022/03/07 10:21:50;;;;;;;7.32;6.63;;;26.60;23.10;;;;;;5072258;28;20183;-52
2022/03/07 10:24:16;;;;;;;7.63;6.93;;;29.40;21.30;;;;;;5072124;28;20166;-54
2022/03/07 10:26:43;;;;;;;7.35;6.75;;;30.40;19.60;;;;;;5071681;28;20204;-57
2022/03/07 10:29:09;;;;;;;6.97;6.25;;;31.30;18.40;;;;;;5072020;28;20253;-51
2022/03/07 10:31:37;;;;;;;8.90;8.13;;;31.90;17.70;;;;;;5071892;28;20618;-51
2022/03/07 10:34:08;;;;;;;6.70;6.20;;;31.80;17.40;;;;;;5071979;28;20166;-55
2022/03/07 10:36:42;;;;;;;7.28;6.57;;;32.00;16.60;;;;;;5071541;28;20691;-57
2022/03/07 10:39:13;;;;;;;8.77;8.02;;;31.80;16.40;;;;;;5073039;28;20206;-55
2022/03/07 10:41:44;;;;;;;8.13;7.43;;;32.30;17.10;;;;;;5071928;28;20564;-54
2022/03/07 10:44:22;;;;;;;6.85;6.15;;;33.80;16.50;;;;;;5071949;28;20262;-58
2022/03/07 10:46:48;;;;;;;7.07;6.40;;;35.20;16.50;;;;;;5071498;28;20167;-55
2022/03/07 10:49:16;;;;;;;7.30;6.70;;;36.80;14.20;;;;;;5070576;28;20204;-56
2022/03/07 10:51:52;;;;;;;7.25;6.55;;;36.60;13.70;;;;;;5070410;28;20178;-55
2022/03/07 10:54:20;;;;;;;6.68;6.18;;;34.30;13.80;;;;;;5071728;28;20171;-55
2022/03/07 10:56:53;;;;;;;6.30;5.80;;;33.40;14.60;;;;;;5071413;28;20170;-54
2022/03/07 10:59:27;;;;;;;6.45;5.95;;;33.90;14.60;;;;;;5071644;28;20194;-53
2022/03/07 11:02:16;;;;;;;6.82;6.20;;;33.00;14.10;;;;;;5071625;28;20221;-55
2022/03/07 11:04:42;;;;;;;7.30;6.60;;;30.90;15.30;;;;;;5071564;28;20195;-57
2022/03/07 11:07:09;;;;;;;6.32;5.82;;;30.80;15.70;;;;;;5071210;28;20175;-53
2022/03/07 11:09:35;;;;;;;7.13;6.43;;;31.90;15.40;;;;;;5071527;28;20197;-54
2022/03/07 11:12:02;;;;;;;6.90;6.30;;;32.60;15.20;;;;;;5071538;28;20202;-53
2022/03/07 11:14:28;;;;;;;7.22;6.53;;;32.80;14.50;;;;;;5071207;28;20224;-52
2022/03/07 11:16:56;;;;;;;6.90;6.30;;;32.90;15.00;;;;;;5071141;28;20170;-54
2022/03/07 11:19:24;;;;;;;6.43;5.82;;;33.70;14.70;;;;;;5071503;28;20212;-57
2022/03/07 11:21:51;;;;;;;6.20;5.60;;;35.00;13.90;;;;;;5071448;28;20648;-58
2022/03/07 11:24:21;;;;;;;7.45;6.85;;;35.60;13.50;;;;;;5071487;28;20254;-57
2022/03/07 11:26:49;;;;;;;6.90;6.30;;;35.60;12.90;;;;;;5071106;28;20213;-52
2022/03/07 11:29:16;;;;;;;6.28;5.70;;;34.50;13.40;;;;;;5071258;28;20181;-54
2022/03/07 11:31:42;;;;;;;6.28;5.78;;;33.80;14.00;;;;;;5074443;28;20202;-57
2022/03/07 11:34:09;;;;;;;6.35;5.85;;;32.90;13.40;;;;;;5075265;28;20532;-54
2022/03/07 11:36:44;;;;;;;7.28;6.68;;;30.10;14.00;;;;;;5074844;28;20187;-56
2022/03/07 11:39:11;;;;;;;7.53;6.93;;;28.10;15.00;;;;;;5075226;28;20601;-56
2022/03/07 11:41:39;;;;;;;7.47;6.78;;;27.80;15.70;;;;;;5075070;28;20619;-53
2022/03/07 11:44:09;;;;;;;7.13;6.53;;;28.60;16.20;;;;;;5075153;28;20182;-56
2022/03/07 11:46:44;;;;;;;6.65;6.05;;;29.80;15.10;;;;;;5074594;28;20586;-57
2022/03/07 11:49:23;;;;;;;5.55;5.07;;;30.10;14.80;;;;;;5074948;28;20198;-53
2022/03/07 11:51:57;;;;;;;5.07;4.43;;;29.40;14.90;;;;;;5075087;28;20695;-55
2022/03/07 11:54:23;;;;;;;5.20;4.80;;;28.00;15.10;;;;;;5074716;28;20191;-57
2022/03/07 11:56:48;;;;;;;5.05;4.65;;;26.90;16.20;;;;;;5074529;28;20189;-52
2022/03/07 11:59:15;;;;;;;4.82;4.40;;;26.70;16.10;;;;;;5074693;28;20225;-56
2022/03/07 12:01:51;;;;;;;5.00;4.45;;;26.70;16.50;;;;;;5074642;28;20173;-54
2022/03/07 12:04:18;;;;;;;4.93;4.53;;;26.30;16.60;;;;;;5074614;28;20281;-56
2022/03/07 12:06:47;;;;;;;5.28;4.88;;;26.40;16.60;;;;;;5074133;28;20170;-54
2022/03/07 12:09:33;;;;;;;4.90;4.50;;;27.00;16.80;;;;;;5074572;28;20167;-56
2022/03/07 12:12:10;;;;;;;4.70;4.30;;;27.40;16.50;;;;;;5074626;28;20243;-56
2022/03/07 12:14:38;;;;;;;4.70;4.30;;;27.80;16.10;;;;;;5074208;28;20700;-55
2022/03/07 12:17:26;;;;;;;5.40;4.90;;;28.20;16.60;;;;;;5074088;28;20253;-56
2022/03/07 12:19:58;;;;;;;5.95;5.45;;;27.50;15.70;;;;;;5074405;28;20602;-53
2022/03/07 12:22:31;;;;;;;5.40;4.93;;;27.00;16.30;;;;;;5074397;28;20170;-53
2022/03/07 12:25:00;;;;;;;5.85;5.35;;;27.40;16.20;;;;;;5074268;28;20551;-57
2022/03/07 12:27:26;;;;;;;12.48;11.30;;;27.50;16.80;;;;;;5073932;28;20170;-54
2022/03/07 12:29:52;;;;;;;4.95;4.55;;;28.00;16.80;;;;;;5074090;28;20228;-56
2022/03/07 12:32:19;;;;;;;5.93;4.95;;;28.50;15.80;;;;;;5074281;28;20235;-56
2022/03/07 12:34:45;;;;;;;5.00;4.53;;;26.30;16.60;;;;;;5073997;28;20270;-56
2022/03/07 12:37:18;;;;;;;6.43;5.82;;;25.50;17.20;;;;;;5073692;28;20236;-57
2022/03/07 12:39:46;;;;;;;5.65;5.15;;;25.80;17.30;;;;;;5074093;28;20605;-53